Latest Weather Observations for Cloncurry

IDQ60801

Issued at 8:05 pm EST Sunday 31 August 2014 (issued every 30 minutes, with the page automatically refreshed every 10 minutes)

About weather observations | Map of weather stations | Latest weather observations for QLD | Other Formats
Station Details ID: 029141 Name: CLONCURRY AIRPORT Lat: -20.67 Lon: 140.50 Height: 186.0 m
Data from the previous 72 hours. | See also: Recent months at Cloncurry
Date/Time
EST
Temp
°C
App
Temp
°C
Dew
Point
Rel
Hum
%
Delta-T
°C
Wind Press
QNH
hPa
Press
MSL
hPa
Rain
since 9 am
mm
Dir
 
Spd
km/h
Gust
km/h
Spd
kts
Gust
kts
31/08:00pm 23.5 19.3 -3.7 16 11.6 ESE 9 13 5 7 1014.9 1014.3 0.0
31/07:30pm 24.7 20.6 -2.8 16 12.1 ESE 9 11 5 6 1014.6 1014.0 0.0
31/07:00pm 26.6 22.1 -3.1 14 13.2 SE 11 13 6 7 1014.3 1013.7 0.0
31/06:30pm 27.4 23.4 -2.4 14 13.5 SE 9 13 5 7 1014.1 1013.5 0.0
31/06:00pm 28.3 23.6 -1.7 14 13.8 ESE 13 20 7 11 1013.9 1013.3 0.0
31/05:30pm 29.0 25.1 -1.2 14 14.1 E 9 20 5 11 1013.7 1013.1 0.0
31/05:00pm 29.3 24.6 -1.9 13 14.5 ESE 13 20 7 11 1013.7 1013.1 0.0
31/04:30pm 29.2 24.2 -1.0 14 14.2 ESE 15 28 8 15 1013.6 1013.0 0.0
31/04:00pm 29.2 24.2 -1.0 14 14.2 SE 15 22 8 12 1013.8 1013.2 0.0
31/03:30pm 29.8 25.9 -1.5 13 14.7 SSE 9 20 5 11 1013.9 1013.3 0.0
31/03:00pm 28.9 23.1 -1.2 14 14.1 SSE 19 26 10 14 1014.2 1013.6 0.0
31/02:30pm 30.0 24.3 -0.4 14 14.5 E 19 28 10 15 1014.4 1013.8 0.0
31/02:00pm 28.5 24.7 -0.6 15 13.7 ENE 9 13 5 7 1014.8 1014.2 0.0
31/01:30pm 28.2 23.6 -0.9 15 13.6 SSE 13 20 7 11 1015.5 1014.9 0.0
31/01:00pm 28.4 23.5 -0.7 15 13.7 E 15 26 8 14 1016.0 1015.4 0.0
31/12:30pm 27.6 23.5 -0.5 16 13.2 E 11 20 6 11 1016.4 1015.8 0.0
31/12:00pm 27.7 23.3 0.5 17 13.0 SE 13 22 7 12 1016.9 1016.3 0.0
31/11:30am 27.5 21.8 0.3 17 12.9 E 20 32 11 17 1017.3 1016.7 0.0
31/11:00am 27.1 20.9 0.0 17 12.8 E 22 35 12 19 1017.5 1016.9 0.0
31/10:30am 26.5 20.4 0.3 18 12.4 ESE 22 26 12 14 1017.8 1017.2 0.0
31/10:00am 25.8 19.3 0.5 19 11.9 ESE 24 32 13 17 1017.8 1017.2 0.0
31/09:30am 24.6 19.9 0.8 21 11.2 ESE 15 26 8 14 1018.0 1017.5 0.0
31/09:00am 23.4 17.9 0.5 22 10.6 ESE 19 24 10 13 1018.1 1017.6 0.0
31/08:30am 20.0 15.5 -0.6 25 9.1 S 13 17 7 9 1018.1 1017.6 0.0
31/08:00am 17.6 14.0 0.3 31 7.6 S 9 11 5 6 1017.9 1017.4 0.0
31/07:30am 13.9 9.4 -0.5 37 6.0 S 13 15 7 8 1017.6 1017.0 0.0
31/07:00am 12.1 7.9 -1.1 40 5.3 S 11 13 6 7 1017.3 1016.7 0.0
31/06:30am 12.1 9.4 -2.1 37 5.6 S 2 6 1 3 1017.0 1016.4 0.0
31/06:00am 12.3 10.0 -2.3 36 5.8 CALM 0 6 0 3 1016.9 1016.3 0.0
31/05:30am 13.9 10.0 -1.7 34 6.3 S 9 11 5 6 1016.7 1016.1 0.0
31/05:00am 14.6 10.8 -1.1 34 6.5 S 9 11 5 6 1016.2 1015.6 0.0
31/04:30am 14.7 10.1 -1.0 34 6.5 S 13 15 7 8 1016.1 1015.5 0.0
31/04:00am 15.2 10.9 -1.4 32 6.9 S 11 11 6 6 1015.9 1015.3 0.0
31/03:30am 16.1 12.3 -1.0 31 7.2 S 9 13 5 7 1015.9 1015.3 0.0
31/03:00am 17.8 13.0 0.5 31 7.6 SSE 15 26 8 14 1015.8 1015.2 0.0
31/02:30am 16.4 11.9 -0.3 32 7.2 S 13 17 7 9 1016.0 1015.4 0.0
31/02:00am 16.3 11.8 -0.4 32 7.1 S 13 15 7 8 1016.1 1015.5 0.0
31/01:30am 16.7 13.4 -0.1 32 7.3 S 7 9 4 5 1016.2 1015.6 0.0
31/01:00am 16.4 12.7 0.1 33 7.0 SSW 9 13 5 7 1016.5 1015.9 0.0
31/12:30am 17.0 12.2 0.2 32 7.3 S 15 17 8 9 1016.7 1016.1 0.0
31/12:00am 16.4 12.3 -0.3 32 7.2 S 11 13 6 7 1016.8 1016.2 0.0
 
Date/Time
EST
Temp
°C
App
Temp
°C
Dew
Point
Rel
Hum
%
Delta-T
°C
Wind Press
QNH
hPa
Press
MSL
hPa
Rain
since 9 am
mm
Dir
 
Spd
km/h
Gust
km/h
Spd
kts
Gust
kts
30/11:30pm 17.6 14.0 0.3 31 7.6 S 9 13 5 7 1016.8 1016.2 0.0
30/11:00pm 17.4 14.3 0.1 31 7.5 SSE 6 9 3 5 1016.7 1016.1 0.0
30/10:30pm 18.8 16.8 2.2 33 7.7 S 2 9 1 5 1016.8 1016.2 0.0
30/10:00pm 18.6 15.5 1.2 31 7.8 SSE 7 9 4 5 1016.7 1016.1 0.0
30/09:30pm 19.6 15.8 -0.4 26 8.8 SSE 9 13 5 7 1016.7 1016.1 0.0
30/09:00pm 21.3 18.1 0.5 25 9.5 E 7 11 4 6 1016.6 1016.0 0.0
30/08:30pm 22.4 19.1 0.3 23 10.1 S 7 11 4 6 1016.3 1015.7 0.0
30/08:00pm 24.3 20.4 1.2 22 10.9 ESE 11 13 6 7 1015.9 1015.3 0.0
30/07:30pm 25.4 21.6 1.5 21 11.4 SE 11 13 6 7 1015.6 1015.0 0.0
30/07:00pm 26.2 21.6 1.5 20 11.9 SE 15 19 8 10 1015.4 1014.8 0.0
30/06:30pm 26.9 21.9 1.3 19 12.3 SE 17 20 9 11 1015.2 1014.6 0.0
30/06:00pm 27.6 22.6 1.2 18 12.8 SSE 17 22 9 12 1015.0 1014.4 0.0
30/05:30pm 28.2 23.1 0.9 17 13.2 ESE 17 22 9 12 1014.8 1014.2 0.0
30/05:00pm 28.5 23.1 1.1 17 13.3 ESE 19 20 10 11 1014.9 1014.3 0.0
30/04:30pm 28.5 25.0 1.1 17 13.3 SSE 9 11 5 6 1014.7 1014.1 0.0
30/04:00pm 28.5 23.1 1.1 17 13.3 SSE 19 26 10 14 1014.8 1014.2 0.0
30/03:30pm 28.2 24.6 0.9 17 13.2 SSE 9 24 5 13 1015.0 1014.4 0.0
30/03:00pm 28.4 24.2 1.8 18 13.1 ESE 13 19 7 10 1015.4 1014.8 0.0
30/02:30pm 28.6 25.2 2.0 18 13.1 WSW 9 22 5 12 1015.6 1015.0 0.0
30/02:00pm 28.0 23.5 2.2 19 12.7 ENE 15 24 8 13 1016.2 1015.6 0.0
30/01:30pm 27.6 24.3 2.6 20 12.4 SSW 9 20 5 11 1016.9 1016.3 0.0
30/01:00pm 26.8 21.3 2.0 20 12.1 SE 20 32 11 17 1017.5 1016.9 0.0
30/12:30pm 27.2 23.2 3.0 21 12.1 NE 13 24 7 13 1018.0 1017.5 0.0
30/12:00pm 26.6 21.2 2.5 21 11.8 ENE 20 32 11 17 1018.8 1018.3 0.0
30/11:30am 26.1 21.1 3.4 23 11.3 E 19 32 10 17 1019.4 1018.8 0.0
30/11:00am 26.0 21.3 3.3 23 11.2 ENE 17 33 9 18 1019.7 1019.1 0.0
30/10:30am 25.1 21.0 2.5 23 11.0 E 13 24 7 13 1020.1 1019.5 0.0
30/10:00am 24.1 19.5 1.7 23 10.6 ESE 15 19 8 10 1020.2 1019.6 0.0
30/09:30am 23.2 18.1 0.9 23 10.4 ESE 17 20 9 11 1020.1 1019.5 0.0
30/09:00am 22.5 16.9 0.9 24 10.0 ESE 20 20 11 11 1020.0 1019.4 0.0
30/08:30am 20.3 15.1 0.2 26 9.0 S 17 19 9 10 1019.8 1019.2 0.0
30/08:00am 17.9 13.3 -0.8 28 8.0 S 13 15 7 8 1019.4 1018.8 0.0
30/07:30am 15.2 10.9 -1.8 31 7.0 S 11 13 6 7 1019.0 1018.5 0.0
30/07:00am 13.4 8.9 -2.9 32 6.4 S 11 11 6 6 1018.8 1018.3 0.0
30/06:30am 14.4 9.2 -2.9 30 6.9 S 15 19 8 10 1018.4 1017.9 0.0
30/06:00am 14.2 9.7 -3.1 30 6.8 S 11 13 6 7 1018.2 1017.7 0.0
30/05:30am 13.4 8.8 -3.8 30 6.6 S 11 13 6 7 1017.7 1017.1 0.0
30/05:00am 13.9 9.3 -3.8 29 6.9 S 11 13 6 7 1017.5 1016.9 0.0
30/04:30am 14.1 8.7 -4.1 28 7.0 S 15 15 8 8 1017.6 1017.0 0.0
30/04:00am 14.7 9.3 -4.1 27 7.3 S 15 17 8 9 1017.4 1016.8 0.0
30/03:30am 14.7 9.7 -4.6 26 7.4 S 13 15 7 8 1017.4 1016.8 0.0
30/03:00am 15.0 9.9 -5.4 24 7.7 S 13 15 7 8 1017.5 1016.9 0.0
30/02:30am 15.7 10.6 -5.3 23 8.0 S 13 15 7 8 1017.5 1016.9 0.0
30/02:00am 15.6 10.5 -5.4 23 8.0 S 13 17 7 9 1017.5 1016.9 0.0
30/01:30am 15.7 10.2 -5.3 23 8.0 SSW 15 17 8 9 1017.6 1017.0 0.0
30/01:00am 15.7 10.1 -6.5 21 8.3 SSW 15 17 8 9 1017.7 1017.1 0.0
30/12:30am 15.7 10.5 -6.5 21 8.3 S 13 15 7 8 1017.7 1017.1 0.0
30/12:00am 16.2 11.0 -6.1 21 8.4 SSW 13 13 7 7 1017.8 1017.2 0.0
 
Date/Time
EST
Temp
°C
App
Temp
°C
Dew
Point
Rel
Hum
%
Delta-T
°C
Wind Press
QNH
hPa
Press
MSL
hPa
Rain
since 9 am
mm
Dir
 
Spd
km/h
Gust
km/h
Spd
kts
Gust
kts
29/11:30pm 16.4 11.2 -6.0 21 8.5 SSW 13 15 7 8 1017.9 1017.4 0.0
29/11:00pm 16.8 11.7 -5.6 21 8.6 S 13 15 7 8 1017.9 1017.4 0.0
29/10:30pm 17.2 12.0 -5.9 20 8.9 S 13 15 7 8 1018.0 1017.5 0.0
29/10:00pm 17.9 12.8 -5.3 20 9.1 S 13 15 7 8 1018.1 1017.6 0.0
29/09:30pm 18.7 14.2 -6.8 17 9.8 SSE 9 9 5 5 1018.0 1017.5 0.0
29/09:00pm 20.9 16.1 -5.8 16 10.7 SE 11 13 6 7 1017.9 1017.4 0.0
29/08:30pm 21.2 16.4 -6.4 15 11.0 SSE 11 13 6 7 1017.8 1017.2 0.0
29/08:00pm 23.7 18.2 -5.3 14 12.0 SSE 15 17 8 9 1017.5 1016.9 0.0
29/07:30pm 24.2 19.0 -5.9 13 12.4 SSE 13 17 7 9 1017.3 1016.7 0.0
29/07:00pm 25.3 19.8 -5.1 13 12.8 SE 15 19 8 10 1017.0 1016.4 0.0
29/06:30pm 26.1 19.8 -5.5 12 13.4 SE 19 24 10 13 1016.8 1016.2 0.0
29/06:00pm 26.9 20.7 -4.9 12 13.7 SE 19 26 10 14 1016.5 1015.9 0.0
29/05:30pm 27.7 20.6 -4.3 12 14.0 SE 24 33 13 18 1016.3 1015.7 0.0
29/05:00pm 28.3 22.2 -3.8 12 14.3 SE 19 26 10 14 1016.2 1015.6 0.0
29/04:30pm 28.1 21.4 -3.9 12 14.2 SSE 22 41 12 22 1016.2 1015.6 0.0
29/04:00pm 28.2 23.6 -3.9 12 14.2 ESE 11 32 6 17 1016.2 1015.6 0.0
29/03:30pm 28.3 22.0 -3.8 12 14.3 S 20 24 11 13 1016.5 1015.9 0.0
29/03:00pm 27.7 21.9 -4.3 12 14.0 SE 17 28 9 15 1016.9 1016.3 0.0
29/02:30pm 27.5 21.9 -3.3 13 13.7 SE 17 24 9 13 1017.1 1016.5 0.0
29/02:00pm 27.7 22.4 -3.2 13 13.8 SSE 15 20 8 11 1017.5 1016.9 0.0
29/01:30pm 27.0 20.0 -3.7 13 13.5 SE 24 35 13 19 1017.9 1017.4 0.0
29/01:00pm 26.9 20.7 -2.8 14 13.3 SSE 20 32 11 17 1018.6 1018.1 0.0
29/12:30pm 26.6 20.0 -3.1 14 13.2 ESE 22 35 12 19 1019.2 1018.6 0.0
29/12:00pm 25.9 20.1 -1.8 16 12.5 E 19 22 10 12 1020.0 1019.4 0.0
29/11:30am 24.8 17.5 -2.7 16 12.1 SE 26 39 14 21 1020.6 1020.0 0.0
29/11:00am 24.7 17.4 -2.8 16 12.0 SE 26 35 14 19 1021.3 1020.7 0.0
29/10:30am 23.6 15.9 -2.8 17 11.5 SE 28 37 15 20 1021.4 1020.8 0.0
29/10:00am 22.8 14.8 -2.7 18 11.0 ESE 30 37 16 20 1021.6 1021.0 0.0
29/09:30am 21.8 13.4 -2.8 19 10.5 ESE 32 39 17 21 1021.7 1021.1 0.0
29/09:00am 20.5 11.8 -3.2 20 9.9 ESE 33 43 18 23 1021.5 1020.9 0.0
29/08:30am 19.6 10.6 -2.7 22 9.4 ESE 35 44 19 24 1021.4 1020.8 0.0
29/08:00am 18.9 10.8 -3.3 22 9.1 ESE 30 41 16 22 1021.0 1020.4 0.0
29/07:30am 18.0 10.7 -2.8 24 8.6 SE 26 33 14 18 1020.6 1020.0 0.0
29/07:00am 17.3 10.7 -2.9 25 8.3 SE 22 32 12 17 1020.2 1019.6 0.0
29/06:30am 17.5 11.0 -2.2 26 8.2 SE 22 33 12 18 1019.9 1019.3 0.0
29/06:00am 17.7 11.3 -2.0 26 8.2 SE 22 30 12 16 1019.7 1019.1 0.0
29/05:30am 18.1 11.7 -1.7 26 8.4 SE 22 30 12 16 1019.4 1018.8 0.0
29/05:00am 18.6 11.9 -1.3 26 8.5 SE 24 30 13 16 1018.9 1018.4 0.0
29/04:30am 19.1 12.8 -0.8 26 8.7 SE 22 32 12 17 1018.7 1018.2 0.0
29/04:00am 19.4 13.8 -0.1 27 8.6 SE 19 26 10 14 1018.6 1018.1 0.0
29/03:30am 19.4 13.8 -0.1 27 8.6 SE 19 26 10 14 1018.5 1018.0 0.0
29/03:00am 19.6 14.0 0.1 27 8.7 SE 19 24 10 13 1018.7 1018.2 0.0
29/02:30am 19.8 14.1 0.3 27 8.7 SE 20 26 11 14 1018.8 1018.3 0.0
29/02:00am 19.7 13.9 0.2 27 8.7 SE 20 26 11 14 1019.0 1018.5 0.0
29/01:30am 19.6 14.0 0.1 27 8.7 SE 19 26 10 14 1019.3 1018.7 0.0
29/01:00am 19.5 13.9 0.0 27 8.6 SSE 19 22 10 12 1019.5 1018.9 0.0
29/12:30am 19.3 14.5 -0.1 27 8.6 SE 15 19 8 10 1019.6 1019.0 0.0
29/12:00am 20.2 15.0 0.1 26 9.0 SE 17 20 9 11 1019.7 1019.1 0.0
 
Date/Time
EST
Temp
°C
App
Temp
°C
Dew
Point
Rel
Hum
%
Delta-T
°C
Wind Press
QNH
hPa
Press
MSL
hPa
Rain
since 9 am
mm
Dir
 
Spd
km/h
Gust
km/h
Spd
kts
Gust
kts
28/11:30pm 20.2 15.3 -0.4 25 9.1 SE 15 19 8 10 1019.6 1019.0 0.0
28/11:00pm 19.8 15.3 -0.2 26 8.8 SSE 13 15 7 8 1019.5 1018.9 0.0
28/10:30pm 20.4 16.2 -0.8 24 9.3 SE 11 17 6 9 1019.6 1019.0 0.0
28/10:00pm 21.4 16.5 -0.6 23 9.8 SSE 15 19 8 10 1019.5 1018.9 0.0
28/09:30pm 22.0 16.7 -0.7 22 10.2 SE 17 20 9 11 1019.3 1018.7 0.0
28/09:00pm 21.5 16.9 -1.1 22 10.0 SE 13 17 7 9 1019.0 1018.5 0.0
28/08:30pm 22.1 17.4 -1.9 20 10.5 SE 13 19 7 10 1018.8 1018.3 0.0

Other Formats:

Comma delimited format used in spreadsheet applications
http://www.bom.gov.au/fwo/IDQ60801/IDQ60801.94335.axf

JavaScript Object Notation format (JSON) in row-major order
http://www.bom.gov.au/fwo/IDQ60801/IDQ60801.94335.json